Time;durP1;ratioP1;P1;durP2;ratioP2;P2;SDS_P1;SDS_P2;PMS_P1;PMS_P2;Temp;Humidity;BMP_temperature;BMP_pressure;BME280_temperature;BME280_humidity;BME280_pressure;Samples;Min_cycle;Max_cycle;Signal;HPM_P1;HPM_P2
2022/04/27 00:01:03;;;;;;;8.00;7.05;;;;;;;9.44;68.41;99317.78;2618098;54;20034;-65
2022/04/27 00:03:35;;;;;;;10.43;7.43;;;;;;;9.39;68.42;99312.22;2617457;54;20034;-66
2022/04/27 00:06:05;;;;;;;10.15;7.93;;;;;;;9.33;68.63;99311.06;2617191;54;20145;-66
2022/04/27 00:08:34;;;;;;;8.50;7.57;;;;;;;9.28;68.63;99308.13;2618013;51;20042;-66
2022/04/27 00:11:04;;;;;;;7.60;6.50;;;;;;;9.28;69.07;99309.94;2621675;47;20035;-66
2022/04/27 00:13:34;;;;;;;7.82;6.72;;;;;;;9.28;69.25;99304.66;2618057;54;20023;-66
2022/04/27 00:16:03;;;;;;;7.43;6.70;;;;;;;9.29;68.72;99299.19;2617498;54;20022;-66
2022/04/27 00:18:36;;;;;;;8.65;7.03;;;;;;;9.29;68.85;99298.38;2617440;54;20027;-66
2022/04/27 00:21:05;;;;;;;10.48;7.32;;;;;;;9.27;68.68;99310.94;2617919;54;20033;-65
2022/04/27 00:23:35;;;;;;;8.13;6.97;;;;;;;9.27;69.07;99301.22;2617510;54;20042;-65
2022/04/27 00:26:05;;;;;;;7.38;6.65;;;;;;;9.23;68.69;99297.28;2617445;54;20045;-66
2022/04/27 00:28:35;;;;;;;8.38;7.05;;;;;;;9.11;68.97;99293.38;2617061;54;20041;-66
2022/04/27 00:31:05;;;;;;;8.60;6.93;;;;;;;9.11;69.44;99307.38;2617587;54;20065;-66
2022/04/27 00:33:37;;;;;;;8.23;7.20;;;;;;;9.09;69.66;99304.06;2617219;54;20035;-66
2022/04/27 00:36:07;;;;;;;8.98;8.05;;;;;;;9.05;69.62;99300.13;2617255;47;20039;-65
2022/04/27 00:38:37;;;;;;;7.70;6.88;;;;;;;9.00;69.44;99307.72;2617086;54;20034;-65
2022/04/27 00:41:07;;;;;;;7.78;6.85;;;;;;;8.90;69.56;99304.47;2617286;54;20121;-65
2022/04/27 00:43:38;;;;;;;8.23;6.97;;;;;;;8.79;69.75;99313.56;2617474;54;20554;-66
2022/04/27 00:46:09;;;;;;;7.53;6.80;;;;;;;8.75;70.26;99319.34;2617894;54;20035;-66
2022/04/27 00:48:42;;;;;;;8.35;6.75;;;;;;;8.72;70.19;99314.41;2617655;54;20169;-66
2022/04/27 00:51:18;;;;;;;7.82;7.03;;;;;;;8.70;70.48;99313.75;2618871;39;20407;-66
2022/04/27 00:53:50;;;;;;;7.63;6.85;;;;;;;8.71;70.51;99318.03;2618143;39;20387;-65
2022/04/27 00:56:21;;;;;;;7.63;6.80;;;;;;;8.67;70.51;99317.53;2617497;47;20030;-65
2022/04/27 00:58:51;;;;;;;7.47;6.65;;;;;;;8.65;70.59;99319.50;2617066;54;20032;-65
2022/04/27 01:01:21;;;;;;;9.02;7.43;;;;;;;8.73;70.43;99318.66;2617733;54;20129;-65
2022/04/27 01:03:54;;;;;;;11.15;8.30;;;;;;;8.73;70.86;99319.50;2617985;39;20438;-65
2022/04/27 01:06:23;;;;;;;9.30;8.38;;;;;;;8.71;70.43;99323.31;2617583;54;20031;-65
2022/04/27 01:08:53;;;;;;;8.52;7.68;;;;;;;8.51;70.66;99318.38;2617068;54;20026;-65
2022/04/27 01:11:23;;;;;;;8.50;7.70;;;;;;;8.50;71.48;99324.66;2618127;54;20042;-65
2022/04/27 01:13:57;;;;;;;9.18;8.27;;;;;;;8.42;71.67;99316.75;2617687;54;20037;-65
2022/04/27 01:16:27;;;;;;;8.75;7.95;;;;;;;8.26;71.79;99322.81;2617933;54;20035;-65
2022/04/27 01:19:00;;;;;;;8.45;7.60;;;;;;;8.16;72.33;99325.63;2617257;39;20434;-65
2022/04/27 01:21:37;;;;;;;8.50;6.38;;;;;;;8.07;72.71;99318.69;2617267;54;20618;-65
2022/04/27 01:24:08;;;;;;;8.82;7.03;;;;;;;7.93;73.09;99325.44;2617355;54;20022;-65
2022/04/27 01:26:38;;;;;;;9.25;7.78;;;;;;;7.95;73.13;99331.34;2617117;54;20034;-65
2022/04/27 01:29:07;;;;;;;8.13;7.13;;;;;;;7.86;73.12;99337.59;2616778;54;20027;-65
2022/04/27 01:31:37;;;;;;;8.13;7.32;;;;;;;7.88;73.01;99330.38;2617868;54;20034;-65
2022/04/27 01:34:07;;;;;;;8.60;7.68;;;;;;;7.82;73.31;99327.56;2617106;54;20645;-65
2022/04/27 01:36:39;;;;;;;10.52;7.60;;;;;;;7.77;73.42;99330.69;2617879;54;20552;-65
2022/04/27 01:39:09;;;;;;;8.65;6.78;;;;;;;7.75;73.70;99327.38;2616827;47;20041;-65
2022/04/27 01:41:40;;;;;;;8.60;7.70;;;;;;;7.72;74.23;99332.16;2617395;54;20045;-66
2022/04/27 01:44:09;;;;;;;8.82;7.63;;;;;;;7.76;74.26;99321.13;2620358;54;20034;-66
2022/04/27 01:46:39;;;;;;;10.13;8.18;;;;;;;7.82;73.84;99327.56;2620327;39;20532;-67
2022/04/27 01:49:09;;;;;;;8.98;7.65;;;;;;;7.92;73.63;99322.97;2620454;54;20042;-66
2022/04/27 01:54:23;;;;;;;9.07;7.30;;;;;;;7.95;73.14;99326.09;2619962;47;20034;-66
2022/04/27 01:56:53;;;;;;;8.13;6.85;;;;;;;7.90;73.34;99338.91;2621421;47;20035;-65
2022/04/27 01:59:23;;;;;;;9.02;8.13;;;;;;;7.86;72.97;99328.88;2621981;54;20043;-66
2022/04/27 02:01:54;;;;;;;9.32;8.02;;;;;;;7.92;73.36;99328.25;2622344;47;20026;-65
2022/04/27 02:04:24;;;;;;;8.20;7.40;;;;;;;7.81;72.69;99339.06;2622074;54;20050;-66
2022/04/27 02:06:57;;;;;;;9.43;7.40;;;;;;;7.61;73.19;99335.91;2619385;54;20031;-65
2022/04/27 02:09:27;;;;;;;8.77;7.90;;;;;;;7.59;73.91;99338.69;2619074;51;20069;-65
2022/04/27 02:11:57;;;;;;;7.90;7.10;;;;;;;7.63;73.73;99349.69;2621574;54;20031;-66
2022/04/27 02:14:27;;;;;;;8.55;7.30;;;;;;;7.62;73.67;99337.53;2622583;54;20065;-65
2022/04/27 02:16:57;;;;;;;8.32;7.22;;;;;;;7.64;73.07;99344.31;2619550;51;20558;-65
2022/04/27 02:19:27;;;;;;;7.60;6.78;;;;;;;7.56;73.36;99352.16;2620204;54;20038;-65
2022/04/27 02:22:00;;;;;;;8.65;7.28;;;;;;;7.52;73.27;99347.41;2621011;54;20077;-65
2022/04/27 02:24:32;;;;;;;8.35;7.50;;;;;;;7.52;73.32;99350.03;2619179;54;20072;-65
2022/04/27 02:27:02;;;;;;;11.73;7.63;;;;;;;7.50;73.31;99351.97;2617448;47;20069;-65
2022/04/27 02:29:33;;;;;;;8.95;7.80;;;;;;;7.52;73.22;99358.72;2617999;54;20053;-65
2022/04/27 02:32:12;;;;;;;8.10;6.97;;;;;;;7.51;73.03;99357.09;2617727;51;20027;-65
2022/04/27 02:34:42;;;;;;;12.88;7.68;;;;;;;7.49;72.81;99352.97;2618356;54;20121;-66
2022/04/27 02:37:15;;;;;;;9.85;7.40;;;;;;;7.41;73.02;99356.38;2617510;47;20034;-66
2022/04/27 02:39:46;;;;;;;9.05;7.22;;;;;;;7.38;72.92;99362.78;2617779;47;20018;-65
2022/04/27 02:42:17;;;;;;;9.15;7.03;;;;;;;7.41;73.08;99361.66;2617802;47;20022;-66
2022/04/27 02:44:47;;;;;;;10.00;7.63;;;;;;;7.38;72.89;99364.59;2617661;54;20034;-66
2022/04/27 02:47:20;;;;;;;8.60;7.63;;;;;;;7.27;72.80;99357.81;2617273;47;20049;-66
2022/04/27 02:52:49;;;;;;;9.23;7.50;;;;;;;7.14;73.45;99355.63;2618158;39;20459;-66
2022/04/27 02:55:29;;;;;;;8.17;6.87;;;;;;;7.02;73.14;99362.13;2617935;47;20031;-65
2022/04/27 02:57:59;;;;;;;10.50;7.30;;;;;;;6.98;73.70;99365.22;2617567;51;20275;-65
2022/04/27 03:00:33;;;;;;;7.90;7.10;;;;;;;6.98;73.63;99359.94;2617544;47;20034;-67
2022/04/27 03:03:08;;;;;;;9.40;7.30;;;;;;;6.98;73.25;99363.44;2617832;54;20056;-65
2022/04/27 03:05:40;;;;;;;9.25;8.32;;;;;;;7.03;73.74;99360.31;2620073;39;20457;-65
2022/04/27 03:08:14;;;;;;;9.13;7.90;;;;;;;7.06;73.50;99362.63;2619818;54;20576;-65
2022/04/27 03:10:51;;;;;;;11.02;9.07;;;;;;;7.06;73.44;99363.47;2619694;47;20033;-65
2022/04/27 03:13:25;;;;;;;8.80;7.78;;;;;;;6.92;73.52;99361.41;2619306;47;20035;-66
2022/04/27 03:16:07;;;;;;;9.73;8.63;;;;;;;6.81;73.76;99365.09;2619064;47;20030;-65
2022/04/27 03:18:37;;;;;;;10.25;7.90;;;;;;;6.83;74.21;99363.16;2619094;47;20045;-65
2022/04/27 03:21:07;;;;;;;9.88;8.45;;;;;;;6.85;73.66;99358.56;2618007;54;20035;-65
2022/04/27 03:23:40;;;;;;;16.85;8.70;;;;;;;6.80;73.49;99358.22;2617574;47;20143;-65
2022/04/27 03:26:11;;;;;;;;;;;;;;;6.59;73.61;99361.19;2617688;47;20026;-65
2022/04/27 03:28:41;;;;;;;9.80;8.38;;;;;;;6.62;74.04;99366.16;2617750;39;20431;-66
2022/04/27 03:31:11;;;;;;;11.65;8.45;;;;;;;6.70;73.99;99368.00;2618181;54;20030;-65
2022/04/27 03:33:42;;;;;;;11.35;9.52;;;;;;;6.67;73.20;99366.50;2617906;54;20546;-65
2022/04/27 03:36:11;;;;;;;9.05;7.55;;;;;;;6.53;73.92;99371.47;2619378;39;20423;-65
2022/04/27 03:38:48;;;;;;;11.10;8.18;;;;;;;6.52;74.02;99372.47;2617831;54;20034;-65
2022/04/27 03:41:20;;;;;;;10.43;8.50;;;;;;;6.53;74.12;99377.59;2620557;54;20046;-65
2022/04/27 03:43:50;;;;;;;9.38;7.75;;;;;;;6.62;73.92;99376.66;2620219;54;20141;-65
2022/04/27 03:46:22;;;;;;;9.15;8.07;;;;;;;6.63;73.75;99374.84;2619946;51;20034;-65
2022/04/27 03:49:11;;;;;;;10.73;8.27;;;;;;;6.56;73.44;99382.50;2618716;54;20057;-65
2022/04/27 03:51:41;;;;;;;10.27;8.43;;;;;;;6.53;73.57;99385.47;2618552;54;20134;-65
2022/04/27 03:54:13;;;;;;;11.60;9.75;;;;;;;6.50;73.55;99384.94;2618037;54;20034;-65
2022/04/27 03:56:43;;;;;;;8.50;7.60;;;;;;;6.34;73.76;99385.63;2617580;54;20053;-66
2022/04/27 03:59:15;;;;;;;10.48;8.90;;;;;;;6.28;74.03;99392.28;2617251;54;20033;-65
2022/04/27 04:01:45;;;;;;;8.65;7.80;;;;;;;6.27;74.18;99387.19;2617419;54;20033;-65
2022/04/27 04:04:15;;;;;;;10.38;8.50;;;;;;;6.36;74.25;99394.97;2617404;54;20046;-65
2022/04/27 04:06:45;;;;;;;13.63;9.65;;;;;;;6.35;73.75;99397.78;2617768;54;20053;-64
2022/04/27 04:09:18;;;;;;;11.63;9.38;;;;;;;6.25;73.83;99397.88;2617114;54;20081;-66
2022/04/27 04:11:48;;;;;;;13.77;9.32;;;;;;;6.25;74.49;99408.38;2617495;54;20026;-66
2022/04/27 04:14:40;;;;;;;10.65;8.20;;;;;;;6.22;74.45;99406.03;2617208;54;20030;-62
2022/04/27 04:17:24;;;;;;;10.43;8.85;;;;;;;6.27;74.15;99409.03;2618653;54;20035;-62
2022/04/27 04:20:17;;;;;;;9.52;8.30;;;;;;;6.39;74.79;99404.38;2619441;54;20039;-63
2022/04/27 04:23:01;;;;;;;12.15;9.32;;;;;;;6.37;73.89;99408.97;2619039;54;20604;-64
2022/04/27 04:28:33;;;;;;;9.50;7.80;;;;;;;6.33;74.51;99418.13;2617992;47;20034;-66
2022/04/27 04:31:05;;;;;;;11.23;8.05;;;;;;;6.34;74.53;99417.97;2619864;54;20137;-64
2022/04/27 04:33:47;;;;;;;11.57;10.07;;;;;;;6.41;74.58;99420.81;2621813;54;20026;-64
2022/04/27 04:36:18;;;;;;;11.00;7.43;;;;;;;6.46;74.19;99423.81;2621794;54;20034;-64
2022/04/27 04:38:48;;;;;;;9.38;7.43;;;;;;;6.49;74.14;99428.78;2622048;54;20564;-65
2022/04/27 04:41:28;;;;;;;9.15;7.50;;;;;;;6.47;73.90;99432.50;2622544;54;20027;-64
2022/04/27 04:43:59;;;;;;;10.48;8.93;;;;;;;6.49;73.77;99435.78;2623252;47;20022;-64
2022/04/27 04:46:34;;;;;;;9.20;7.63;;;;;;;6.50;74.08;99430.41;2622909;47;20121;-64
2022/04/27 04:49:22;;;;;;;9.48;8.30;;;;;;;6.57;73.99;99436.72;2623819;54;20162;-64
2022/04/27 04:52:12;;;;;;;10.60;9.52;;;;;;;6.63;73.53;99443.97;2622947;54;20025;-65
2022/04/27 04:55:14;;;;;;;8.90;7.97;;;;;;;6.57;73.53;99441.13;2625217;39;20525;-66
2022/04/27 04:58:12;;;;;;;12.73;8.23;;;;;;;6.53;73.36;99447.66;2624095;54;20022;-64
2022/04/27 05:00:57;;;;;;;9.82;8.18;;;;;;;6.54;73.66;99444.06;2624240;54;20034;-67
2022/04/27 05:03:37;;;;;;;11.15;9.30;;;;;;;6.51;73.13;99439.13;2624136;54;20034;-65
2022/04/27 05:06:07;;;;;;;9.35;7.93;;;;;;;6.41;72.98;99447.91;2624602;54;20042;-63
2022/04/27 05:08:46;;;;;;;10.05;8.07;;;;;;;6.25;73.32;99452.19;2623942;54;20026;-65
2022/04/27 05:11:33;;;;;;;11.32;8.48;;;;;;;6.25;74.08;99452.19;2624331;54;20061;-65
2022/04/27 05:14:20;;;;;;;;;;;;;;;6.40;74.27;99458.53;2622948;47;20030;-66
2022/04/27 05:17:01;;;;;;;10.18;7.88;;;;;;;6.54;74.14;99462.47;2622605;47;19958;-63
2022/04/27 05:19:44;;;;;;;12.45;8.05;;;;;;;6.60;73.51;99467.09;2622910;54;20031;-64
2022/04/27 05:22:40;;;;;;;9.25;7.78;;;;;;;6.51;73.60;99474.09;2622799;54;20623;-65
2022/04/27 05:25:26;;;;;;;9.88;8.45;;;;;;;6.55;73.63;99475.44;2622970;47;20027;-64
2022/04/27 05:28:07;;;;;;;9.40;7.90;;;;;;;6.61;73.78;99476.63;2622631;54;20034;-65
2022/04/27 05:34:01;;;;;;;10.05;8.55;;;;;;;6.92;73.26;99479.69;2622657;54;20049;-66
2022/04/27 05:36:42;;;;;;;8.57;7.38;;;;;;;6.93;73.09;99479.53;2622073;54;20038;-65
2022/04/27 05:39:39;;;;;;;10.93;8.23;;;;;;;7.14;73.00;99484.47;2622404;39;20470;-65
2022/04/27 05:42:16;;;;;;;10.23;8.38;;;;;;;7.28;73.28;99493.59;2622797;54;20082;-65
2022/04/27 05:45:10;;;;;;;9.18;7.95;;;;;;;7.42;73.08;99492.19;2622969;54;20157;-65
2022/04/27 05:47:49;;;;;;;11.38;8.00;;;;;;;7.53;72.53;99496.38;2623046;54;20038;-64
2022/04/27 05:50:57;;;;;;;11.57;8.43;;;;;;;7.64;72.20;99496.94;2622155;47;20030;-65
2022/04/27 05:53:51;;;;;;;8.77;7.88;;;;;;;7.81;72.21;99508.34;2622149;54;20030;-64
2022/04/27 05:56:40;;;;;;;10.00;8.23;;;;;;;7.97;71.64;99504.16;2623254;54;20038;-63
2022/04/27 05:59:20;;;;;;;13.10;9.93;;;;;;;8.04;71.42;99511.25;2622492;54;20546;-66
2022/04/27 06:02:09;;;;;;;10.55;8.55;;;;;;;8.16;71.22;99519.66;2623429;54;20561;-64
2022/04/27 06:04:42;;;;;;;14.10;9.32;;;;;;;8.26;70.57;99527.47;2623222;39;20422;-63
2022/04/27 06:07:12;;;;;;;11.60;9.55;;;;;;;8.33;70.20;99518.75;2623016;47;20038;-63
2022/04/27 06:09:42;;;;;;;13.90;10.27;;;;;;;8.39;70.59;99526.03;2623025;47;20099;-65
2022/04/27 06:12:23;;;;;;;13.10;10.23;;;;;;;8.52;70.18;99525.56;2622971;47;20037;-63
2022/04/27 06:15:13;;;;;;;11.30;9.77;;;;;;;8.61;70.15;99521.97;2623556;54;20050;-63
2022/04/27 06:17:44;;;;;;;12.35;10.25;;;;;;;8.71;69.95;99524.47;2622348;54;20026;-64
2022/04/27 06:20:18;;;;;;;11.88;10.55;;;;;;;8.81;69.72;99525.09;2623503;54;20046;-63
2022/04/27 06:22:48;;;;;;;14.88;12.48;;;;;;;8.89;69.71;99527.75;2622032;47;20066;-63
2022/04/27 06:25:19;;;;;;;15.90;12.65;;;;;;;8.99;69.72;99524.97;2621795;47;20026;-63
2022/04/27 06:27:51;;;;;;;13.27;11.75;;;;;;;8.90;68.69;99528.59;2622507;47;20026;-65
2022/04/27 06:30:21;;;;;;;14.80;11.50;;;;;;;8.93;69.53;99526.44;2624022;54;20034;-64
2022/04/27 06:32:51;;;;;;;16.23;12.50;;;;;;;9.13;70.01;99524.31;2622760;54;20130;-64
2022/04/27 06:35:24;;;;;;;16.80;13.57;;;;;;;9.29;69.36;99526.09;2621285;54;20033;-63
2022/04/27 06:37:58;;;;;;;17.20;14.52;;;;;;;9.28;68.81;99529.75;2620867;39;20442;-63
2022/04/27 06:40:28;;;;;;;16.92;13.85;;;;;;;9.30;69.39;99527.75;2620397;39;20469;-62
2022/04/27 06:42:58;;;;;;;19.85;15.50;;;;;;;9.43;69.00;99536.00;2619848;47;20034;-64
2022/04/27 06:45:48;;;;;;;17.35;14.35;;;;;;;9.44;69.18;99536.81;2620593;54;20154;-65
2022/04/27 06:48:36;;;;;;;19.75;15.45;;;;;;;9.53;69.00;99543.72;2619738;54;20129;-65
2022/04/27 06:51:27;;;;;;;21.85;15.23;;;;;;;9.70;68.82;99535.78;2618802;54;20061;-65
2022/04/27 06:54:15;;;;;;;19.67;15.20;;;;;;;9.78;68.28;99536.56;2619252;54;20033;-65
2022/04/27 06:57:03;;;;;;;19.17;15.73;;;;;;;9.88;68.61;99539.03;2621709;54;20034;-65
2022/04/27 07:00:10;;;;;;;18.85;15.63;;;;;;;9.98;68.22;99544.09;2621123;46;20146;-64
2022/04/27 07:02:40;;;;;;;20.88;16.15;;;;;;;10.13;67.93;99547.69;2620676;47;20162;-64
2022/04/27 07:05:16;;;;;;;24.73;18.92;;;;;;;10.22;67.24;99556.41;2620853;47;20154;-63
2022/04/27 07:07:49;;;;;;;21.23;16.58;;;;;;;10.12;66.99;99554.78;2621875;39;20470;-63
2022/04/27 07:10:19;;;;;;;23.85;17.95;;;;;;;10.09;67.33;99556.97;2623724;54;20045;-63
2022/04/27 07:12:49;;;;;;;22.83;18.48;;;;;;;10.18;67.59;99558.56;2623434;54;20035;-65
2022/04/27 07:15:19;;;;;;;21.90;19.42;;;;;;;10.21;67.12;99555.59;2623562;54;20046;-65
2022/04/27 07:17:48;;;;;;;22.55;16.95;;;;;;;10.25;67.36;99556.09;2623376;54;20034;-64
2022/04/27 07:20:18;;;;;;;24.42;20.38;;;;;;;10.52;67.13;99562.72;2623681;54;20043;-68
2022/04/27 07:22:50;;;;;;;23.33;20.50;;;;;;;10.66;66.38;99559.34;2622606;54;20030;-66
2022/04/27 07:25:20;;;;;;;21.25;17.48;;;;;;;10.73;66.61;99554.16;2623776;54;20037;-65
2022/04/27 07:27:50;;;;;;;23.40;18.83;;;;;;;10.86;66.54;99560.53;2622729;54;20530;-66
2022/04/27 07:30:21;;;;;;;27.40;23.35;;;;;;;11.07;65.05;99567.00;2623290;54;20033;-66
2022/04/27 07:32:51;;;;;;;24.98;22.00;;;;;;;11.12;65.50;99565.47;2622610;54;20578;-65
2022/04/27 07:35:21;;;;;;;27.35;22.58;;;;;;;11.13;65.30;99566.28;2623027;54;20576;-65
2022/04/27 07:37:53;;;;;;;27.10;22.40;;;;;;;11.10;65.47;99562.19;2622882;54;20038;-64
2022/04/27 07:40:23;;;;;;;25.30;22.45;;;;;;;11.12;65.58;99567.28;2624018;54;20050;-64
2022/04/27 07:42:52;;;;;;;25.70;22.77;;;;;;;11.12;65.91;99560.19;2623876;54;20026;-65
2022/04/27 07:45:22;;;;;;;25.65;22.88;;;;;;;11.15;65.73;99553.72;2623420;54;20149;-63
2022/04/27 07:47:52;;;;;;;27.23;22.98;;;;;;;11.15;65.62;99561.66;2622557;54;20034;-63
2022/04/27 07:50:21;;;;;;;25.95;22.35;;;;;;;11.29;65.24;99570.63;2623244;54;20035;-64
2022/04/27 07:52:56;;;;;;;25.30;22.48;;;;;;;11.68;64.89;99564.34;2623117;54;20542;-64
2022/04/27 07:55:26;;;;;;;25.67;22.83;;;;;;;11.89;64.55;99557.34;2622911;54;20541;-64
2022/04/27 07:57:55;;;;;;;27.83;24.30;;;;;;;12.03;64.30;99568.94;2622269;54;20045;-64
2022/04/27 08:00:26;;;;;;;27.10;24.15;;;;;;;12.21;63.96;99575.69;2623061;54;20037;-66
2022/04/27 08:02:56;;;;;;;28.13;24.05;;;;;;;12.15;62.88;99569.28;2623447;54;20034;-64
2022/04/27 08:05:26;;;;;;;27.73;24.58;;;;;;;12.14;63.24;99575.59;2621821;54;20303;-64
2022/04/27 08:08:00;;;;;;;28.17;24.35;;;;;;;12.20;63.43;99574.03;2621546;54;20542;-64
2022/04/27 08:10:30;;;;;;;29.13;25.02;;;;;;;12.30;63.39;99579.88;2622034;54;20034;-64
2022/04/27 08:13:00;;;;;;;26.30;23.50;;;;;;;12.32;62.50;99577.88;2622183;54;20081;-64
2022/04/27 08:15:30;;;;;;;25.48;22.77;;;;;;;12.31;62.73;99577.03;2621429;54;20031;-64
2022/04/27 08:18:01;;;;;;;25.35;22.60;;;;;;;12.42;62.19;99585.53;2621217;54;20063;-64
2022/04/27 08:23:37;;;;;;;27.30;24.42;;;;;;;12.14;62.90;99579.06;2620750;54;20035;-65
2022/04/27 08:26:08;;;;;;;29.98;24.50;;;;;;;12.03;63.02;99587.47;2621726;54;20042;-65
2022/04/27 08:28:39;;;;;;;26.58;23.63;;;;;;;12.16;62.90;99592.13;2621236;54;20042;-65
2022/04/27 08:31:09;;;;;;;29.70;24.02;;;;;;;12.34;62.46;99592.59;2621786;54;20037;-63
2022/04/27 08:33:39;;;;;;;26.80;24.00;;;;;;;12.58;62.28;99587.97;2621169;54;20046;-65
2022/04/27 08:36:09;;;;;;;28.63;23.13;;;;;;;12.68;62.17;99590.34;2622091;39;20454;-64
2022/04/27 08:39:01;;;;;;;24.15;21.27;;;;;;;12.81;61.01;99590.47;2621324;54;20149;-65
2022/04/27 08:41:31;;;;;;;29.13;25.58;;;;;;;12.87;60.38;99587.09;2623150;54;20045;-64
2022/04/27 08:44:01;;;;;;;26.48;23.75;;;;;;;12.78;60.48;99581.06;2623483;54;20038;-65
2022/04/27 08:46:32;;;;;;;26.17;23.48;;;;;;;12.77;60.57;99582.06;2622865;54;20033;-64
2022/04/27 08:49:02;;;;;;;22.40;19.75;;;;;;;12.70;60.61;99591.81;2622430;39;20426;-64
2022/04/27 08:51:32;;;;;;;22.70;19.95;;;;;;;12.74;60.06;99590.41;2624317;39;20427;-63
2022/04/27 08:54:04;;;;;;;22.17;17.80;;;;;;;12.90;59.35;99602.63;2622749;54;20046;-65
2022/04/27 08:56:35;;;;;;;19.77;17.75;;;;;;;13.08;58.21;99599.53;2623012;54;20035;-64
2022/04/27 08:59:05;;;;;;;19.58;17.58;;;;;;;13.27;58.38;99598.13;2621927;54;20026;-63
2022/04/27 09:01:35;;;;;;;17.98;16.17;;;;;;;13.29;57.01;99599.56;2621887;47;20038;-63
2022/04/27 09:04:16;;;;;;;18.13;16.23;;;;;;;13.31;57.31;99596.72;2622698;54;20030;-63
2022/04/27 09:06:47;;;;;;;18.52;16.63;;;;;;;13.45;57.02;99602.97;2622022;47;20646;-65
2022/04/27 09:09:39;;;;;;;17.77;15.98;;;;;;;13.68;56.65;99603.56;2622390;54;20027;-63
2022/04/27 09:12:16;;;;;;;18.10;16.30;;;;;;;14.00;56.16;99596.84;2622821;54;20027;-63
2022/04/27 09:14:46;;;;;;;18.95;17.05;;;;;;;13.99;55.37;99597.03;2622875;39;20450;-65
2022/04/27 09:22:58;;;;;;;17.60;15.90;;;;;;;14.00;54.89;99598.66;2622217;54;20049;-64
2022/04/27 09:25:38;;;;;;;17.77;15.50;;;;;;;14.07;55.14;99600.34;2622246;54;20046;-64
2022/04/27 09:28:31;;;;;;;16.27;14.57;;;;;;;14.25;54.45;99609.66;2621949;47;20035;-65
2022/04/27 09:31:03;;;;;;;16.95;14.88;;;;;;;14.12;54.04;99599.75;2622040;54;20039;-66
2022/04/27 09:33:37;;;;;;;15.50;13.95;;;;;;;14.02;55.14;99604.63;2622469;54;20041;-64
2022/04/27 09:36:23;;;;;;;17.85;15.65;;;;;;;13.96;54.93;99602.72;2622489;54;20045;-64
2022/04/27 09:38:54;;;;;;;18.55;16.08;;;;;;;13.87;55.42;99602.88;2621964;54;20090;-65
2022/04/27 09:41:42;;;;;;;16.40;14.68;;;;;;;13.96;55.14;99600.91;2621526;47;20484;-65
2022/04/27 09:44:28;;;;;;;17.27;15.48;;;;;;;14.18;53.98;99592.84;2621479;54;20034;-64
2022/04/27 09:46:58;;;;;;;15.50;13.95;;;;;;;14.32;53.94;99597.19;2622060;54;20530;-65
2022/04/27 09:49:28;;;;;;;14.98;13.45;;;;;;;14.66;52.55;99603.53;2621875;54;20050;-65
2022/04/27 09:52:02;;;;;;;15.05;13.23;;;;;;;14.67;52.13;99592.69;2622470;54;20029;-65
2022/04/27 09:54:34;;;;;;;16.45;14.75;;;;;;;14.66;52.43;99598.22;2622616;54;20523;-64
2022/04/27 09:57:08;;;;;;;16.70;14.90;;;;;;;14.56;52.11;99594.06;2622355;54;20530;-65
2022/04/27 09:59:39;;;;;;;16.50;15.00;;;;;;;14.35;52.94;99591.50;2622061;54;20026;-64
2022/04/27 10:02:13;;;;;;;17.52;15.82;;;;;;;14.19;53.48;99594.47;2621525;47;20034;-65
2022/04/27 10:04:43;;;;;;;21.05;16.92;;;;;;;14.06;53.83;99596.06;2620870;54;20034;-66
2022/04/27 10:07:13;;;;;;;16.63;14.93;;;;;;;14.11;53.81;99598.13;2620919;54;20553;-65
2022/04/27 10:09:44;;;;;;;18.38;16.55;;;;;;;14.30;53.57;99600.06;2620990;54;20052;-66
2022/04/27 10:12:19;;;;;;;18.05;16.23;;;;;;;14.48;53.13;99586.22;2620850;54;20039;-64
2022/04/27 10:14:53;;;;;;;17.95;16.05;;;;;;;14.69;53.14;99592.47;2620005;54;20034;-65
2022/04/27 10:17:22;;;;;;;15.65;14.05;;;;;;;14.73;52.01;99583.88;2619098;47;20022;-64
2022/04/27 10:19:52;;;;;;;16.70;15.00;;;;;;;15.03;51.39;99579.06;2620032;54;20038;-65
2022/04/27 10:22:31;;;;;;;15.70;14.02;;;;;;;15.30;49.47;99581.72;2619801;54;20035;-65
2022/04/27 10:25:07;;;;;;;17.25;14.52;;;;;;;15.17;50.05;99587.88;2620559;54;20038;-65
2022/04/27 10:27:44;;;;;;;14.18;12.93;;;;;;;15.11;50.68;99580.72;2620829;54;20035;-67
2022/04/27 10:30:17;;;;;;;17.20;15.35;;;;;;;15.24;50.21;99580.72;2621127;54;20042;-64
2022/04/27 10:32:49;;;;;;;18.42;16.50;;;;;;;15.31;50.34;99586.06;2622608;54;20556;-64
2022/04/27 10:35:27;;;;;;;18.15;16.27;;;;;;;15.26;51.22;99585.81;2622591;54;20035;-65
2022/04/27 10:38:02;;;;;;;17.55;15.73;;;;;;;15.38;50.20;99586.84;2621866;54;20035;-66
2022/04/27 10:40:34;;;;;;;17.70;15.88;;;;;;;15.40;50.29;99578.69;2622940;39;20438;-64
2022/04/27 10:43:13;;;;;;;16.27;14.65;;;;;;;15.42;50.64;99587.28;2621710;47;20026;-65
2022/04/27 10:45:44;;;;;;;14.82;13.07;;;;;;;15.49;50.26;99575.59;2621952;54;20026;-65
2022/04/27 10:48:19;;;;;;;17.23;14.90;;;;;;;15.79;49.65;99581.31;2621754;54;20034;-65
2022/04/27 10:51:01;;;;;;;18.65;16.75;;;;;;;15.87;49.08;99577.63;2620855;47;20039;-64
2022/04/27 10:53:32;;;;;;;16.80;15.10;;;;;;;15.68;49.64;99573.16;2621630;54;20035;-65
2022/04/27 10:56:26;;;;;;;15.23;13.65;;;;;;;15.50;49.40;99571.09;2621066;54;20061;-64
2022/04/27 10:58:58;;;;;;;13.15;11.77;;;;;;;15.75;48.87;99564.09;2621236;39;20419;-63
2022/04/27 11:01:34;;;;;;;14.30;12.48;;;;;;;16.08;47.51;99568.56;2622134;54;20050;-63
2022/04/27 11:04:15;;;;;;;12.57;10.68;;;;;;;16.32;46.18;99565.19;2621756;54;20081;-64
2022/04/27 11:07:17;;;;;;;13.35;12.05;;;;;;;16.24;46.22;99561.94;2621258;54;20023;-64
2022/04/27 11:10:12;;;;;;;13.75;12.43;;;;;;;16.28;46.07;99571.16;2621124;54;20034;-64
2022/04/27 11:12:43;;;;;;;15.55;13.57;;;;;;;16.35;46.15;99571.97;2620779;54;20038;-64
2022/04/27 11:15:18;;;;;;;12.73;11.52;;;;;;;16.59;46.14;99567.75;2621593;47;20133;-64
2022/04/27 11:17:55;;;;;;;14.55;13.10;;;;;;;16.88;45.53;99561.06;2624508;54;20061;-65
2022/04/27 11:20:33;;;;;;;17.80;14.55;;;;;;;16.86;45.99;99562.28;2621112;54;20078;-64
2022/04/27 11:23:07;;;;;;;12.80;11.60;;;;;;;16.87;44.62;99563.94;2621737;39;20430;-64
2022/04/27 11:25:39;;;;;;;14.73;11.70;;;;;;;16.80;44.07;99564.78;2620534;54;20026;-64
2022/04/27 11:28:11;;;;;;;16.08;10.95;;;;;;;16.70;44.80;99566.28;2620922;54;20038;-63
2022/04/27 11:30:44;;;;;;;15.13;12.40;;;;;;;16.75;44.42;99561.94;2621501;54;20027;-64
2022/04/27 11:33:14;;;;;;;12.15;10.95;;;;;;;16.79;44.74;99555.16;2621360;54;20554;-65
2022/04/27 11:35:47;;;;;;;11.60;9.48;;;;;;;17.05;43.72;99556.81;2621163;54;20027;-65
2022/04/27 11:38:19;;;;;;;;;;;;;;;17.32;43.15;99559.31;2620027;54;20026;-66
2022/04/27 11:40:51;;;;;;;10.45;9.45;;;;;;;17.30;43.38;99556.03;2620867;54;20465;-64
2022/04/27 11:43:27;;;;;;;9.88;8.88;;;;;;;17.49;41.76;99552.38;2620791;54;20546;-64
2022/04/27 11:46:00;;;;;;;10.90;9.27;;;;;;;17.44;41.16;99554.06;2620398;54;20069;-64
2022/04/27 11:48:33;;;;;;;12.00;9.18;;;;;;;17.38;41.88;99539.72;2620145;54;20038;-65
2022/04/27 11:51:06;;;;;;;13.07;10.60;;;;;;;17.43;42.11;99550.59;2620730;54;20038;-64
2022/04/27 11:53:46;;;;;;;10.35;9.13;;;;;;;17.44;41.53;99552.22;2620539;54;20037;-64
2022/04/27 11:56:16;;;;;;;9.93;8.82;;;;;;;17.26;41.95;99552.97;2620779;54;20038;-64
2022/04/27 11:58:48;;;;;;;10.30;9.20;;;;;;;17.21;41.86;99560.00;2619832;47;20069;-63
2022/04/27 12:01:25;;;;;;;12.77;11.48;;;;;;;17.19;42.29;99560.22;2620975;54;20053;-64
2022/04/27 12:03:55;;;;;;;11.55;10.35;;;;;;;17.13;42.23;99550.41;2620140;47;20034;-63
2022/04/27 12:06:26;;;;;;;11.75;10.60;;;;;;;17.40;41.63;99550.22;2620918;54;20038;-64
2022/04/27 12:09:02;;;;;;;12.52;11.23;;;;;;;17.45;41.57;99548.50;2620758;54;20117;-65
2022/04/27 12:11:32;;;;;;;11.93;10.80;;;;;;;17.46;41.69;99546.63;2621939;39;20431;-66
2022/04/27 12:14:01;;;;;;;10.80;9.70;;;;;;;17.36;41.26;99547.16;2620939;54;20038;-65
2022/04/27 12:16:34;;;;;;;9.25;8.23;;;;;;;17.19;40.83;99548.72;2621216;54;20039;-65
2022/04/27 12:19:04;;;;;;;8.88;8.07;;;;;;;16.96;41.14;99550.09;2620569;54;20026;-64
2022/04/27 12:21:34;;;;;;;9.75;7.68;;;;;;;17.11;41.55;99543.66;2621831;54;20034;-64
2022/04/27 12:24:17;;;;;;;8.30;7.60;;;;;;;17.10;41.69;99542.81;2621591;54;20038;-65